createdAt,value
2022-07-31T00:02:22.863Z,96407.91
2022-07-31T00:07:25.742Z,96404.50
2022-07-31T00:12:29.962Z,96404.06
2022-07-31T00:17:32.742Z,96394.34
2022-07-31T00:22:36.532Z,96402.75
2022-07-31T00:27:41.142Z,96396.97
2022-07-31T00:32:44.057Z,96391.88
2022-07-31T00:37:46.876Z,96396.34
2022-07-31T00:42:51.163Z,96393.34
2022-07-31T00:47:55.735Z,96400.66
2022-07-31T00:52:58.619Z,96398.75
2022-07-31T00:58:02.825Z,96391.63
2022-07-31T01:03:05.754Z,96401.13
2022-07-31T01:08:08.806Z,96391.06
2022-07-31T01:13:21.146Z,96385.78
2022-07-31T01:18:26.826Z,96388.44
2022-07-31T01:23:50.964Z,96389.44
2022-07-31T01:29:09.973Z,96386.34
2022-07-31T01:34:20.751Z,96389.91
2022-07-31T01:39:24.012Z,96392.59
2022-07-31T01:44:29.991Z,96404.53
2022-07-31T01:49:34.514Z,96394.25
2022-07-31T01:54:38.925Z,96404.09
2022-07-31T01:59:46.338Z,96400.19
2022-07-31T02:04:50.649Z,96395.25
2022-07-31T02:09:58.827Z,96394.63
2022-07-31T02:15:05.673Z,96395.59
2022-07-31T02:20:12.661Z,96392.06
2022-07-31T02:25:15.803Z,96387.59
2022-07-31T02:30:20.575Z,96393.88
2022-07-31T02:35:23.973Z,96382.75
2022-07-31T02:40:27.146Z,96389.06
2022-07-31T02:45:31.688Z,96387.75
2022-07-31T02:50:34.686Z,96392.84
2022-07-31T02:55:39.041Z,96392.69
2022-07-31T03:00:43.540Z,96395.13
2022-07-31T03:05:46.441Z,96399.75
2022-07-31T03:10:49.293Z,96393.66
2022-07-31T03:15:53.958Z,96388.53
2022-07-31T03:20:57.858Z,96383.78
2022-07-31T03:26:01.317Z,96388.69
2022-07-31T03:31:07.857Z,96397.75
2022-07-31T03:36:10.726Z,96386.06
2022-07-31T03:41:13.537Z,96384.44
2022-07-31T03:46:20.996Z,96395.13
2022-07-31T03:51:23.925Z,96389.97
2022-07-31T03:56:27.132Z,96405.25
2022-07-31T04:01:57.331Z,96408.69
2022-07-31T04:06:54.579Z,96403.44
2022-07-31T04:11:57.396Z,96402.50
2022-07-31T04:17:01.587Z,96404.16
2022-07-31T04:22:05.517Z,96402.50
2022-07-31T04:27:12.712Z,96404.69
2022-07-31T04:32:17.198Z,96410.19
2022-07-31T04:37:20.043Z,96408.88
2022-07-31T04:42:22.908Z,96410.66
2022-07-31T04:47:27.088Z,96407.13
2022-07-31T04:52:29.918Z,96407.47
2022-07-31T04:57:32.736Z,96405.31
2022-07-31T05:02:37.052Z,96406.41
2022-07-31T05:07:40.004Z,96406.69
2022-07-31T05:12:42.828Z,96408.00
2022-07-31T05:17:46.989Z,96410.78
2022-07-31T05:22:49.831Z,96411.47
2022-07-31T05:27:52.656Z,96406.78
2022-07-31T05:32:56.842Z,96391.06
2022-07-31T05:37:59.666Z,96394.53
2022-07-31T05:43:02.501Z,96395.16
2022-07-31T05:48:07.176Z,96397.81
2022-07-31T05:53:11.995Z,96391.72
2022-07-31T05:58:16.949Z,96394.44
2022-07-31T06:03:27.842Z,96396.47
2022-07-31T06:08:30.833Z,96392.41
2022-07-31T06:13:33.690Z,96392.81
2022-07-31T06:18:37.859Z,96400.72
2022-07-31T06:23:40.684Z,96413.22
2022-07-31T06:28:47.624Z,96411.13
2022-07-31T06:33:53.239Z,96409.25
2022-07-31T06:38:56.078Z,96408.34
2022-07-31T06:43:58.936Z,96408.22
2022-07-31T06:49:08.283Z,96416.28
2022-07-31T06:54:12.692Z,96416.97
2022-07-31T06:59:18.017Z,96415.03
2022-07-31T07:04:57.403Z,96422.00
2022-07-31T07:10:02.616Z,96410.38
2022-07-31T07:15:06.344Z,96414.91
2022-07-31T07:20:11.616Z,96419.66
2022-07-31T07:25:14.442Z,96430.50
2022-07-31T07:30:17.298Z,96422.56
2022-07-31T07:35:21.977Z,96429.69
2022-07-31T07:40:25.442Z,96437.22
2022-07-31T07:45:28.295Z,96428.66
2022-07-31T07:50:32.612Z,96418.66
2022-07-31T07:55:37.432Z,96420.22
2022-07-31T08:00:41.016Z,96412.63
2022-07-31T08:05:45.376Z,96410.06
2022-07-31T08:10:48.218Z,96406.75
2022-07-31T08:15:51.085Z,96401.72
2022-07-31T08:20:55.314Z,96405.44
2022-07-31T08:25:58.142Z,96403.81
2022-07-31T08:31:01.836Z,96410.28
2022-07-31T08:36:09.062Z,96399.41
2022-07-31T08:41:14.884Z,96397.25
2022-07-31T08:46:18.516Z,96392.13
2022-07-31T08:51:24.822Z,96389.91
2022-07-31T08:56:28.347Z,96384.06
2022-07-31T09:01:31.390Z,96378.63
2022-07-31T09:06:35.714Z,96377.56
2022-07-31T09:11:48.210Z,96375.28
2022-07-31T09:16:51.665Z,96381.47
2022-07-31T09:21:55.876Z,96377.53
2022-07-31T09:27:07.148Z,96388.03
2022-07-31T09:32:11.949Z,96388.28
2022-07-31T09:37:17.879Z,96392.59
2022-07-31T09:42:21.943Z,96370.50
2022-07-31T09:47:26.978Z,96363.41
2022-07-31T09:52:32.446Z,96367.06
2022-07-31T09:57:37.626Z,96357.03
2022-07-31T10:02:44.827Z,96351.63
2022-07-31T10:07:49.993Z,96351.56
2022-07-31T10:12:55.261Z,96350.03
2022-07-31T10:17:59.225Z,96352.22
2022-07-31T10:23:10.421Z,96341.88
2022-07-31T10:28:14.107Z,96336.91
2022-07-31T10:33:42.015Z,96342.78
2022-07-31T10:38:49.050Z,96333.56
2022-07-31T10:43:55.762Z,96325.91
2022-07-31T10:48:59.095Z,96326.00
2022-07-31T10:54:06.682Z,96312.06
2022-07-31T10:59:10.958Z,96314.41
2022-07-31T11:04:15.061Z,96314.41
2022-07-31T11:09:25.255Z,96294.38
2022-07-31T11:14:35.473Z,96296.19
2022-07-31T11:19:41.354Z,96282.34
2022-07-31T11:24:54.755Z,96285.47
2022-07-31T11:30:07.950Z,96283.94
2022-07-31T11:35:14.235Z,96291.81
2022-07-31T11:40:18.694Z,96286.63
2022-07-31T11:45:25.249Z,96275.88
2022-07-31T11:50:41.103Z,96272.41
2022-07-31T11:55:50.990Z,96258.09
2022-07-31T12:00:55.786Z,96258.84
2022-07-31T12:05:58.662Z,96272.03
2022-07-31T12:11:04.479Z,96263.47
2022-07-31T12:16:09.356Z,96262.97
2022-07-31T12:21:12.269Z,96257.56
2022-07-31T12:26:23.900Z,96257.59
2022-07-31T12:31:26.781Z,96248.69
2022-07-31T12:36:29.665Z,96245.88
2022-07-31T12:41:43.453Z,96240.50
2022-07-31T12:46:46.301Z,96238.00
2022-07-31T12:51:49.226Z,96234.69
2022-07-31T12:56:53.458Z,96233.78
2022-07-31T13:01:56.743Z,96228.78
2022-07-31T13:07:00.163Z,96213.75
2022-07-31T13:12:05.234Z,96213.16
2022-07-31T13:17:08.476Z,96220.31
2022-07-31T13:22:11.326Z,96205.88
2022-07-31T13:27:16.326Z,96202.28
2022-07-31T13:32:19.141Z,96205.13
2022-07-31T13:37:21.969Z,96194.03
2022-07-31T13:42:29.305Z,96194.59
2022-07-31T13:47:51.628Z,96192.25
2022-07-31T13:52:55.322Z,96169.94
2022-07-31T13:57:59.724Z,96152.50
2022-07-31T14:03:04.553Z,96157.06
2022-07-31T14:08:33.075Z,96152.16
2022-07-31T14:13:31.598Z,96153.53
2022-07-31T14:18:34.462Z,96145.59
2022-07-31T14:23:40.716Z,96142.81
2022-07-31T14:28:45.214Z,96145.00
2022-07-31T14:33:48.213Z,96135.78
2022-07-31T14:38:51.042Z,96143.44
2022-07-31T14:43:55.241Z,96139.06
2022-07-31T14:48:58.532Z,96138.78
2022-07-31T14:54:01.507Z,96138.28
2022-07-31T14:59:05.704Z,96137.88
2022-07-31T15:04:08.550Z,96126.34
2022-07-31T15:09:11.403Z,96124.22
2022-07-31T15:14:16.072Z,96124.78
2022-07-31T15:19:18.865Z,96128.97
2022-07-31T15:24:21.721Z,96118.06
2022-07-31T15:29:25.947Z,96117.41
2022-07-31T15:34:48.818Z,96116.59
2022-07-31T15:40:01.425Z,96112.31
2022-07-31T15:45:09.838Z,96105.59
2022-07-31T15:50:14.888Z,96105.34
2022-07-31T15:55:18.934Z,96113.25
2022-07-31T16:00:23.534Z,96104.16
2022-07-31T16:05:36.656Z,96102.75
2022-07-31T16:10:40.079Z,96096.59
2022-07-31T16:15:44.484Z,96087.13
2022-07-31T16:20:47.637Z,96088.81
2022-07-31T16:25:50.479Z,96081.56
2022-07-31T16:30:54.678Z,96085.00
2022-07-31T16:35:57.770Z,96088.72
2022-07-31T16:41:00.592Z,96077.31
2022-07-31T16:46:04.785Z,96077.75
2022-07-31T16:51:08.349Z,96077.53
2022-07-31T16:56:11.279Z,96077.38
2022-07-31T17:01:54.021Z,96078.25
2022-07-31T17:06:38.371Z,96085.31
2022-07-31T17:11:41.350Z,96089.50
2022-07-31T17:16:49.960Z,96081.25
2022-07-31T17:21:53.149Z,96079.41
2022-07-31T17:26:56.388Z,96090.50
2022-07-31T17:32:00.622Z,96081.56
2022-07-31T17:37:04.210Z,96089.41
2022-07-31T17:47:07.668Z,96099.59
2022-07-31T17:47:31.938Z,96105.59
2022-07-31T17:52:34.789Z,96103.78
2022-07-31T17:57:37.767Z,96108.09
2022-07-31T18:02:42.044Z,96106.66
2022-07-31T18:07:44.981Z,96117.50
2022-07-31T18:12:57.573Z,96112.09
2022-07-31T18:18:02.448Z,96110.03
2022-07-31T18:23:05.353Z,96118.47
2022-07-31T18:28:13.025Z,96125.88
2022-07-31T18:33:17.548Z,96116.22
2022-07-31T18:38:20.397Z,96127.44
2022-07-31T18:43:23.274Z,96134.63
2022-07-31T18:48:27.492Z,96128.81
2022-07-31T18:53:30.346Z,96138.31
2022-07-31T18:58:33.217Z,96145.91
2022-07-31T19:03:37.615Z,96134.34
2022-07-31T19:08:40.543Z,96142.94
2022-07-31T19:13:43.381Z,96132.63
2022-07-31T19:18:50.372Z,96135.50
2022-07-31T19:23:53.547Z,96145.25
2022-07-31T19:28:56.640Z,96145.84
2022-07-31T19:34:00.916Z,96133.38
2022-07-31T19:39:03.851Z,96143.00
2022-07-31T19:44:08.260Z,96145.84
2022-07-31T19:49:12.508Z,96148.69
2022-07-31T19:54:15.368Z,96160.06
2022-07-31T19:59:18.246Z,96158.91
2022-07-31T20:04:22.436Z,96165.72
2022-07-31T20:09:25.359Z,96163.94
2022-07-31T20:14:28.166Z,96175.72
2022-07-31T20:19:32.350Z,96171.31
2022-07-31T20:24:35.177Z,96174.16
2022-07-31T20:29:38.024Z,96178.72
2022-07-31T20:34:42.224Z,96173.97
2022-07-31T20:39:45.045Z,96170.94
2022-07-31T20:44:47.849Z,96171.50
2022-07-31T20:49:52.224Z,96182.97
2022-07-31T20:54:55.085Z,96177.03
2022-07-31T20:59:57.957Z,96181.84
2022-07-31T21:05:02.366Z,96178.59
2022-07-31T21:10:06.518Z,96169.34
2022-07-31T21:15:28.442Z,96173.41
2022-07-31T21:20:51.384Z,96177.41
2022-07-31T21:25:58.479Z,96178.63
2022-07-31T21:31:01.890Z,96175.06
2022-07-31T21:36:07.003Z,96179.63
2022-07-31T21:41:10.442Z,96185.16
2022-07-31T21:46:17.714Z,96193.25
2022-07-31T21:51:22.469Z,96199.09
2022-07-31T21:56:25.393Z,96201.88
2022-07-31T22:01:28.298Z,96192.34
2022-07-31T22:06:49.953Z,96199.09
2022-07-31T22:12:01.703Z,96199.06
2022-07-31T22:17:04.804Z,96196.66
2022-07-31T22:22:10.335Z,96200.88
2022-07-31T22:27:47.063Z,96200.56
2022-07-31T22:32:53.331Z,96198.09
2022-07-31T22:37:58.158Z,96200.09
2022-07-31T22:43:02.329Z,96200.09
2022-07-31T22:48:06.375Z,96198.31
2022-07-31T22:53:10.570Z,96215.78
2022-07-31T22:58:15.173Z,96210.25
2022-07-31T23:03:18.127Z,96212.66
2022-07-31T23:08:22.323Z,96213.84
2022-07-31T23:13:25.135Z,96200.28
2022-07-31T23:18:27.973Z,96204.31
2022-07-31T23:23:32.150Z,96205.81
2022-07-31T23:28:34.889Z,96211.41
2022-07-31T23:33:37.723Z,96216.00
2022-07-31T23:38:42.298Z,96207.56
2022-07-31T23:43:55.223Z,96209.50
2022-07-31T23:48:58.479Z,96207.00
2022-07-31T23:54:05.485Z,96207.19
2022-07-31T23:59:08.359Z,96192.66
